This is the latest recevied weather packets stored in our database for station/object IK0TIX. If no packets are shown the sender has not sent any weather packets the latest 10 day(s).
| Time | Temp. | Humidity | Pressure | Rain* | Wind** | Luminosity | Snow |
|---|---|---|---|---|---|---|---|
| 1777557587 | 25° C | 54% | 1017.2 hPa | 0 mm | - | - | - |
| 1777555168 | 25° C | 56% | 1017.4 hPa | 0 mm | - | - | - |
| 1777553391 | 24.44° C | 57% | 1017.3 hPa | 0 mm | - | - | - |
| 1777553082 | 24.44° C | 57% | 1017.3 hPa | 0 mm | - | - | - |
| 1777552769 | 24.44° C | 56% | 1017.4 hPa | 0 mm | - | - | - |
| 1777548589 | 25° C | 57% | 1017.7 hPa | 0 mm | - | - | - |
| 1777547073 | 23.89° C | 56% | 1017.7 hPa | 0 mm | - | - | - |
| 1777543178 | 22.22° C | 60% | 1018 hPa | 0 mm | - | - | - |
| 1777542882 | 22.22° C | 61% | 1018.1 hPa | 0 mm | - | - | - |
| 1777542573 | 21.67° C | 61% | 1018.1 hPa | 0 mm | - | - | - |
| 1777541406 | 21.11° C | 65% | 1018.1 hPa | 0 mm | - | - | - |
| 1777541080 | 20.56° C | 65% | 1018.1 hPa | 0 mm | - | - | - |
| 1777539888 | 20° C | 68% | 1018.1 hPa | 0 mm | - | - | - |
| 1777539586 | 20° C | 67% | 1018.1 hPa | 0 mm | - | - | - |
| 1777536906 | 17.78° C | 73% | 1017.8 hPa | 0 mm | - | - | - |
| 1777536004 | 17.78° C | 73% | 1017.5 hPa | 0 mm | - | - | - |
| 1777535706 | 17.78° C | 73% | 1017.4 hPa | 0 mm | - | - | - |
| 1777535373 | 17.78° C | 73% | 1017.3 hPa | 0 mm | - | - | - |
| 1777532085 | 16.67° C | 83% | 1017.4 hPa | 0 mm | - | - | - |
| 1777531177 | 16.11° C | 86% | 1017.3 hPa | 0 mm | - | - | - |
| 1777528202 | 14.44° C | 89% | 1017.3 hPa | 0 mm | - | - | - |
| 1777526381 | 14.44° C | 90% | 1017.1 hPa | 0 mm | - | - | - |
| 1777524896 | 13.89° C | 89% | 1017.1 hPa | 0 mm | - | - | - |
| 1777524567 | 13.89° C | 89% | 1017 hPa | 1.02 mm | - | - | - |
| 1777524290 | 13.89° C | 89% | 1017 hPa | 2.03 mm | - | - | - |
* Rain latest hour (hover to see other rain measurements)
** Current wind speed in m/s (hover to see current wind gust speed)